Time;durP1;ratioP1;P1;durP2;ratioP2;P2;SDS_P1;SDS_P2;PMS_P1;PMS_P2;Temp;Humidity;BMP_temperature;BMP_pressure;BME280_temperature;BME280_humidity;BME280_pressure;Samples;Min_cycle;Max_cycle;Signal;HPM_P1;HPM_P2
2023/09/04 00:02:23;;;;;;;5.35;2.33;;;;;;;21.02;51.50;95132.63;5085163;28;20020;-82
2023/09/04 00:04:48;;;;;;;4.35;1.80;;;;;;;21.03;51.45;95136.19;5085714;28;20095;-83
2023/09/04 00:07:14;;;;;;;3.55;2.22;;;;;;;21.08;51.40;95155.00;5085163;28;20103;-82
2023/09/04 00:09:39;;;;;;;4.45;1.90;;;;;;;20.93;52.59;95158.75;5085316;28;20067;-83
2023/09/04 00:12:06;;;;;;;6.03;2.25;;;;;;;20.82;53.47;95167.06;5085194;28;20016;-85
2023/09/04 00:14:32;;;;;;;4.72;2.20;;;;;;;20.71;54.32;95158.63;5085349;28;20028;-83
2023/09/04 00:16:57;;;;;;;6.70;3.03;;;;;;;20.60;54.84;95159.31;5085545;28;20075;-82
2023/09/04 00:19:23;;;;;;;6.50;2.13;;;;;;;20.60;55.13;95136.97;5084945;28;20486;-82
2023/09/04 00:21:48;;;;;;;4.45;2.10;;;;;;;20.58;54.34;95136.69;5085137;28;20143;-81
2023/09/04 00:24:14;;;;;;;4.65;2.30;;;;;;;20.49;54.54;95124.97;5084888;28;20104;-82
2023/09/04 00:26:39;;;;;;;4.32;2.45;;;;;;;20.51;54.95;95119.63;5085471;28;20031;-83
2023/09/04 00:29:05;;;;;;;3.08;2.15;;;;;;;20.36;54.88;95116.97;5084805;28;20036;-82
2023/09/04 00:31:30;;;;;;;2.60;2.00;;;;;;;20.26;54.54;95119.19;5085349;28;20104;-83
2023/09/04 00:33:56;;;;;;;3.03;2.15;;;;;;;20.20;54.91;95118.38;5066975;28;20020;-83
2023/09/04 00:36:21;;;;;;;4.28;2.40;;;;;;;20.07;55.71;95123.59;5067032;28;20020;-83
2023/09/04 00:38:46;;;;;;;3.08;2.10;;;;;;;19.94;56.11;95117.66;5085788;28;20020;-83
2023/09/04 00:41:12;;;;;;;5.18;2.50;;;;;;;19.77;57.02;95109.91;5084989;28;20021;-83
2023/09/04 00:43:37;;;;;;;4.13;2.60;;;;;;;19.61;57.47;95102.94;5085376;28;20398;-82
2023/09/04 00:46:03;;;;;;;5.95;2.38;;;;;;;19.47;58.34;95100.97;5086781;28;20146;-83
2023/09/04 00:48:30;;;;;;;3.85;2.22;;;;;;;19.48;58.69;95093.38;5089227;28;20477;-82
2023/09/04 00:50:55;;;;;;;3.35;2.60;;;;;;;19.58;58.18;95078.00;5088203;28;20475;-83
2023/09/04 00:53:21;;;;;;;3.40;2.17;;;;;;;19.52;58.23;95079.97;5070775;28;20028;-83
2023/09/04 00:55:48;;;;;;;4.95;2.80;;;;;;;19.46;58.32;95087.53;5053528;28;20426;-82
2023/09/04 00:58:13;;;;;;;3.15;2.50;;;;;;;19.40;58.99;95083.91;5070394;28;20024;-83
2023/09/04 01:00:38;;;;;;;4.80;2.25;;;;;;;19.50;59.26;95088.84;5088596;28;20092;-82
2023/09/04 01:03:04;;;;;;;3.75;2.55;;;;;;;19.40;58.92;95069.97;5088297;28;20028;-83
2023/09/04 01:05:32;;;;;;;3.58;2.25;;;;;;;19.53;59.50;95075.94;5070564;28;20028;-83
2023/09/04 01:07:58;;;;;;;3.53;2.28;;;;;;;19.54;59.46;95069.09;5087942;28;20020;-81
2023/09/04 01:10:24;;;;;;;3.45;2.30;;;;;;;19.62;60.05;95059.84;5088629;28;20031;-83
2023/09/04 01:13:01;;;;;;;3.30;2.50;;;;;;;19.66;59.64;95051.22;5087661;28;20020;-83
2023/09/04 01:15:27;;;;;;;4.93;2.95;;;;;;;19.69;60.18;95061.41;5070103;28;20101;-84
2023/09/04 01:17:53;;;;;;;4.28;2.33;;;;;;;19.69;60.23;95052.28;5088191;28;20028;-82
2023/09/04 01:20:25;;;;;;;3.25;2.30;;;;;;;19.71;59.80;95058.88;5088341;28;20109;-82
2023/09/04 01:22:51;;;;;;;5.18;2.78;;;;;;;19.72;59.95;95052.03;5088304;28;20097;-82
2023/09/04 01:25:16;;;;;;;3.05;2.40;;;;;;;19.68;59.71;95042.38;5087902;28;20119;-81
2023/09/04 01:27:49;;;;;;;3.67;2.15;;;;;;;19.72;59.08;95054.81;5088012;28;20479;-82
2023/09/04 01:30:24;;;;;;;3.10;2.33;;;;;;;19.74;58.71;95051.56;5069552;28;20510;-83
2023/09/04 01:32:56;;;;;;;4.97;2.53;;;;;;;19.61;58.92;95038.00;5087392;28;20048;-82
2023/09/04 01:35:22;;;;;;;3.30;2.70;;;;;;;19.60;58.60;95040.03;5070067;28;20024;-83
2023/09/04 01:37:47;;;;;;;3.50;2.78;;;;;;;19.59;58.91;95046.88;5068941;28;20024;-83
2023/09/04 01:40:13;;;;;;;3.83;2.70;;;;;;;19.61;59.25;95038.78;5069653;28;20035;-83
2023/09/04 01:42:38;;;;;;;4.10;2.50;;;;;;;19.63;59.47;95046.66;5068973;28;20016;-83
2023/09/04 01:45:04;;;;;;;4.55;2.85;;;;;;;19.67;59.22;95047.19;5087357;28;20058;-83
2023/09/04 01:47:30;;;;;;;6.03;2.70;;;;;;;19.63;59.21;95036.25;5069523;28;20035;-82
2023/09/04 01:49:56;;;;;;;4.95;3.50;;;;;;;19.64;59.07;95048.19;5086932;28;20050;-83
2023/09/04 01:52:22;;;;;;;3.22;2.58;;;;;;;19.60;59.25;95033.69;5087510;28;20418;-82
2023/09/04 01:54:47;;;;;;;5.55;2.53;;;;;;;19.61;59.18;95038.78;5068775;28;20055;-82
2023/09/04 01:57:12;;;;;;;4.00;2.50;;;;;;;19.54;58.91;95033.59;5087199;28;20099;-82
2023/09/04 01:59:38;;;;;;;3.72;3.05;;;;;;;19.61;58.45;95038.78;5068586;28;20139;-82
2023/09/04 02:02:03;;;;;;;3.65;2.50;;;;;;;19.55;56.97;95045.53;5086941;28;20253;-81
2023/09/04 02:04:31;;;;;;;5.53;2.67;;;;;;;19.54;57.52;95041.22;5086984;28;20035;-82
2023/09/04 02:06:58;;;;;;;2.80;2.15;;;;;;;19.43;57.21;95041.09;5086981;28;20020;-82
2023/09/04 02:09:23;;;;;;;3.85;2.33;;;;;;;19.40;57.56;95026.13;5086999;28;20111;-82
2023/09/04 02:11:49;;;;;;;4.47;3.10;;;;;;;19.40;57.68;95031.72;5086545;28;20099;-82
2023/09/04 02:14:14;;;;;;;3.80;2.78;;;;;;;19.37;57.36;95022.31;5068913;28;20035;-82
2023/09/04 02:16:39;;;;;;;3.60;2.85;;;;;;;19.39;57.07;95037.78;5086728;28;20145;-82
2023/09/04 02:19:05;;;;;;;3.83;2.65;;;;;;;19.21;57.39;95028.50;5086896;28;20039;-82
2023/09/04 02:21:30;;;;;;;3.00;2.67;;;;;;;19.10;57.01;95039.53;5086555;28;20028;-80
2023/09/04 02:23:56;;;;;;;4.50;3.08;;;;;;;18.87;57.97;95034.94;5086618;28;20130;-82
2023/09/04 02:26:21;;;;;;;3.15;2.70;;;;;;;18.77;57.46;95031.56;5086684;28;20024;-82
2023/09/04 02:28:46;;;;;;;3.90;2.88;;;;;;;18.54;58.20;95027.72;5068631;28;20111;-81
2023/09/04 02:31:12;;;;;;;4.40;2.83;;;;;;;18.56;58.20;95027.97;5086397;28;20020;-81
2023/09/04 02:33:37;;;;;;;3.22;2.72;;;;;;;18.42;58.14;95021.22;5086348;28;20024;-81
2023/09/04 02:36:03;;;;;;;3.30;2.78;;;;;;;18.47;58.43;95017.00;5086676;28;20051;-81
2023/09/04 02:38:29;;;;;;;3.15;2.47;;;;;;;18.54;58.63;95022.91;5067823;28;20031;-81
2023/09/04 02:40:54;;;;;;;3.10;2.55;;;;;;;18.55;57.97;95020.88;5067979;28;20024;-81
2023/09/04 02:43:20;;;;;;;3.70;3.03;;;;;;;18.50;58.34;95024.34;5086128;28;20524;-82
2023/09/04 02:45:46;;;;;;;3.42;2.85;;;;;;;18.51;58.55;95018.28;5086648;28;20063;-82
2023/09/04 02:48:12;;;;;;;4.07;2.95;;;;;;;18.55;58.20;95015.31;5086340;28;20028;-82
2023/09/04 02:50:37;;;;;;;3.63;2.97;;;;;;;18.66;57.92;95029.38;5068057;28;20043;-81
2023/09/04 02:53:03;;;;;;;3.40;3.05;;;;;;;18.60;57.59;95017.41;5086702;28;20484;-80
2023/09/04 02:55:28;;;;;;;3.05;2.70;;;;;;;18.76;57.83;95022.44;5086008;28;20055;-81
2023/09/04 02:57:53;;;;;;;3.55;2.83;;;;;;;18.81;57.37;95032.88;5086704;28;20024;-80
2023/09/04 03:00:19;;;;;;;3.47;2.70;;;;;;;18.77;57.04;95026.75;5067333;28;20028;-82
2023/09/04 03:02:44;;;;;;;3.22;2.78;;;;;;;18.77;56.90;95028.78;5086269;28;20483;-82
2023/09/04 03:05:10;;;;;;;7.35;2.75;;;;;;;18.83;56.99;95026.81;5085762;28;20024;-82
2023/09/04 03:07:36;;;;;;;5.57;2.90;;;;;;;18.84;56.93;95020.75;5086058;28;20127;-82
2023/09/04 03:10:01;;;;;;;3.83;2.90;;;;;;;18.84;57.01;95020.00;5085430;28;20032;-81
2023/09/04 03:12:29;;;;;;;5.68;3.33;;;;;;;18.84;56.73;95014.41;5085979;28;20089;-81
2023/09/04 03:14:58;;;;;;;3.67;2.80;;;;;;;18.84;56.81;95020.75;5068658;28;20421;-80
2023/09/04 03:17:25;;;;;;;4.22;2.70;;;;;;;18.84;56.76;95017.97;5085471;28;20031;-81
2023/09/04 03:19:54;;;;;;;5.47;2.85;;;;;;;18.91;56.14;95016.00;5086099;28;20398;-81
2023/09/04 03:22:23;;;;;;;3.95;2.70;;;;;;;18.83;56.07;95016.44;5085344;28;20107;-82
2023/09/04 03:24:49;;;;;;;5.15;2.45;;;;;;;18.85;56.10;95013.16;5085539;28;20047;-82
2023/09/04 03:27:17;;;;;;;4.00;2.83;;;;;;;18.83;56.13;95021.25;5067699;28;20114;-81
2023/09/04 03:29:42;;;;;;;5.10;2.50;;;;;;;18.76;56.29;95011.31;5085792;28;20024;-82
2023/09/04 03:32:08;;;;;;;6.30;3.03;;;;;;;18.74;56.41;95021.38;5067469;28;20074;-82
2023/09/04 03:34:33;;;;;;;4.00;2.83;;;;;;;18.72;56.94;95027.44;5067223;28;20024;-80
2023/09/04 03:36:59;;;;;;;4.13;2.70;;;;;;;18.64;56.71;95019.97;5086020;28;20016;-81
2023/09/04 03:39:24;;;;;;;5.32;2.70;;;;;;;18.60;57.03;95017.41;5084897;28;20047;-81
2023/09/04 03:41:50;;;;;;;5.47;2.92;;;;;;;18.56;57.26;95019.63;5085802;28;20020;-82
2023/09/04 03:44:16;;;;;;;4.10;3.08;;;;;;;18.42;57.63;95010.09;5085240;28;20077;-82
2023/09/04 03:46:41;;;;;;;4.00;2.80;;;;;;;18.30;58.23;95003.63;5085358;28;20398;-81
2023/09/04 03:49:07;;;;;;;3.53;2.97;;;;;;;18.33;58.18;95013.00;5085907;28;20020;-81
2023/09/04 03:51:33;;;;;;;3.17;2.88;;;;;;;18.16;58.50;95009.22;5085429;28;20440;-81
2023/09/04 03:54:02;;;;;;;4.90;3.35;;;;;;;18.22;58.74;95023.97;5085918;28;20024;-80
2023/09/04 03:56:29;;;;;;;4.88;3.58;;;;;;;18.14;58.80;95029.19;5067219;28;20031;-80
2023/09/04 03:58:55;;;;;;;3.28;2.90;;;;;;;18.07;59.36;95028.84;5085688;28;20516;-83
2023/09/04 04:01:22;;;;;;;3.83;2.70;;;;;;;17.92;59.80;95021.28;5066774;28;20481;-83
2023/09/04 04:03:48;;;;;;;5.20;3.25;;;;;;;17.91;60.09;95027.34;5085577;28;20035;-79
2023/09/04 04:06:13;;;;;;;4.70;3.58;;;;;;;17.88;60.20;95033.84;5066944;28;20028;-79
2023/09/04 04:08:39;;;;;;;7.82;4.40;;;;;;;17.84;60.55;95033.31;5050069;28;20447;-79
2023/09/04 04:11:05;;;;;;;3.97;3.30;;;;;;;17.78;60.68;95036.75;5067056;28;20089;-78
2023/09/04 04:13:31;;;;;;;5.05;3.33;;;;;;;17.71;60.91;95025.22;5066492;28;20039;-81
2023/09/04 04:16:00;;;;;;;3.70;3.25;;;;;;;17.68;60.84;95020.63;5067040;28;20024;-80
2023/09/04 04:18:26;;;;;;;4.47;3.58;;;;;;;17.61;60.95;95024.59;5065987;28;20028;-81
2023/09/04 04:20:55;;;;;;;5.72;3.47;;;;;;;17.55;61.51;95029.28;5088258;28;20025;-80
2023/09/04 04:23:21;;;;;;;5.05;3.88;;;;;;;17.55;61.51;95025.72;5070245;28;20038;-80
2023/09/04 04:25:50;;;;;;;4.72;3.65;;;;;;;17.46;62.05;95018.25;5070551;28;20107;-80
2023/09/04 04:28:19;;;;;;;4.18;3.67;;;;;;;17.47;61.38;95019.78;5070425;28;20540;-81
2023/09/04 04:30:45;;;;;;;8.00;3.50;;;;;;;17.47;61.19;95009.44;5070000;28;20028;-81
2023/09/04 04:33:10;;;;;;;3.22;2.90;;;;;;;17.40;60.92;95014.63;5070717;28;20301;-82
2023/09/04 04:35:36;;;;;;;3.83;2.88;;;;;;;17.40;61.05;95012.59;5053044;28;20070;-81
2023/09/04 04:38:01;;;;;;;3.55;3.13;;;;;;;17.43;60.72;95011.66;5070508;28;20016;-81
2023/09/04 04:40:27;;;;;;;4.32;2.92;;;;;;;17.33;60.75;95007.44;5069753;28;20031;-82
2023/09/04 04:42:52;;;;;;;3.20;2.88;;;;;;;17.29;60.60;95006.09;5088439;28;20490;-81
2023/09/04 04:45:18;;;;;;;3.05;2.72;;;;;;;17.34;60.57;95010.97;5088505;28;20107;-81
2023/09/04 04:47:44;;;;;;;3.53;2.67;;;;;;;17.25;60.46;95000.72;5053350;28;20030;-81
2023/09/04 04:50:09;;;;;;;2.97;2.65;;;;;;;17.30;60.27;95021.50;5070244;28;20017;-82
2023/09/04 04:52:35;;;;;;;3.20;2.75;;;;;;;17.28;60.45;95024.78;5052606;28;20031;-82
2023/09/04 04:55:01;;;;;;;4.30;3.03;;;;;;;17.25;60.24;95020.94;5070011;28;20028;-82
2023/09/04 04:57:26;;;;;;;3.45;2.55;;;;;;;17.18;60.06;95015.00;5087683;28;20099;-82
2023/09/04 04:59:52;;;;;;;4.03;2.92;;;;;;;17.17;60.26;95017.00;5087828;28;20032;-81
2023/09/04 05:02:17;;;;;;;4.07;2.70;;;;;;;17.20;59.92;95013.28;5087919;28;20016;-83
2023/09/04 05:04:46;;;;;;;2.95;2.38;;;;;;;17.23;59.75;95012.31;5052540;28;20024;-82
2023/09/04 05:07:12;;;;;;;2.78;2.42;;;;;;;17.17;60.03;95008.69;5088101;28;20028;-82
2023/09/04 05:09:38;;;;;;;4.68;2.53;;;;;;;17.11;60.11;94993.94;5069518;28;20512;-82
2023/09/04 05:12:04;;;;;;;4.47;2.60;;;;;;;17.17;60.03;95011.44;5088174;28;20032;-82
2023/09/04 05:14:29;;;;;;;3.20;2.47;;;;;;;17.18;59.86;95001.88;5052268;28;20032;-79
2023/09/04 05:16:55;;;;;;;4.65;2.25;;;;;;;17.17;60.02;95007.91;5069755;28;20402;-81
2023/09/04 05:19:21;;;;;;;2.78;2.40;;;;;;;17.05;59.72;95006.94;5069353;28;20478;-81
2023/09/04 05:21:47;;;;;;;3.40;2.53;;;;;;;17.03;60.04;95012.19;5052190;28;20059;-81
2023/09/04 05:24:12;;;;;;;3.03;2.33;;;;;;;17.05;59.67;95015.28;5069671;28;20062;-81
2023/09/04 05:26:38;;;;;;;3.50;2.80;;;;;;;16.99;59.78;95000.53;5068824;28;20460;-81
2023/09/04 05:29:03;;;;;;;2.40;2.20;;;;;;;17.11;59.10;95021.69;5069859;28;20027;-80
2023/09/04 05:31:29;;;;;;;2.75;2.33;;;;;;;17.09;59.35;95015.88;5086909;28;20043;-81
2023/09/04 05:33:54;;;;;;;3.30;2.30;;;;;;;17.08;59.40;95014.31;5052999;28;20035;-82
2023/09/04 05:36:19;;;;;;;4.20;2.60;;;;;;;17.07;59.35;95007.22;5052221;28;20055;-81
2023/09/04 05:38:46;;;;;;;3.50;2.70;;;;;;;17.15;59.45;95016.72;5052679;28;20111;-81
2023/09/04 05:41:12;;;;;;;3.90;2.50;;;;;;;17.10;59.46;95003.50;5087507;28;20055;-82
2023/09/04 05:43:37;;;;;;;3.53;2.85;;;;;;;17.19;59.11;95008.19;5068978;28;20164;-84
2023/09/04 05:46:03;;;;;;;3.70;2.55;;;;;;;17.11;59.09;94999.47;5087976;28;20024;-86
2023/09/04 05:48:30;;;;;;;3.45;3.08;;;;;;;17.19;58.98;95008.19;5069491;28;20024;-85
2023/09/04 05:50:55;;;;;;;4.72;3.00;;;;;;;17.13;58.90;94999.00;5053709;28;20535;-84
2023/09/04 05:53:23;;;;;;;6.45;3.38;;;;;;;17.18;59.06;95012.97;5069595;28;20493;-84
2023/09/04 05:56:05;;;;;;;4.55;3.10;;;;;;;17.13;58.81;94996.22;5070182;28;20063;-90
2023/09/04 05:58:31;;;;;;;3.92;2.60;;;;;;;17.18;58.69;95006.66;5088628;28;20031;-89
2023/09/04 06:00:56;;;;;;;3.60;3.00;;;;;;;17.17;59.00;95005.13;5070049;28;20016;-87
2023/09/04 06:03:21;;;;;;;5.47;3.40;;;;;;;17.07;59.06;94998.91;5052812;28;20028;-83
2023/09/04 06:05:48;;;;;;;4.20;3.30;;;;;;;17.05;58.98;94995.84;5069102;28;20042;-83
2023/09/04 06:08:14;;;;;;;4.18;3.20;;;;;;;16.99;59.35;94986.66;5069754;28;20454;-87
2023/09/04 06:10:40;;;;;;;5.45;3.20;;;;;;;17.04;59.07;94999.88;5069259;28;20099;-86
2023/09/04 06:13:05;;;;;;;5.30;3.13;;;;;;;17.08;59.49;95003.19;5069880;28;20031;-85
2023/09/04 06:15:31;;;;;;;3.65;3.05;;;;;;;16.99;59.64;95001.28;5068635;28;20430;-78
2023/09/04 06:17:56;;;;;;;4.38;3.72;;;;;;;17.06;59.75;95002.91;5086498;28;20020;-78
2023/09/04 06:20:21;;;;;;;4.20;3.50;;;;;;;17.09;59.31;94998.41;5086693;28;20431;-77
2023/09/04 06:22:47;;;;;;;4.30;2.90;;;;;;;17.07;59.20;94993.34;5086468;28;20020;-78
2023/09/04 06:25:12;;;;;;;4.50;2.88;;;;;;;17.03;58.85;94995.53;5087310;28;20516;-77
2023/09/04 06:27:38;;;;;;;7.57;3.72;;;;;;;17.01;59.11;94991.72;5086183;28;20036;-78
2023/09/04 06:30:06;;;;;;;4.22;3.28;;;;;;;17.08;58.63;94997.66;5087059;28;20161;-76
2023/09/04 06:32:31;;;;;;;3.08;2.75;;;;;;;17.13;58.70;94999.75;5086086;28;20036;-77
2023/09/04 06:34:56;;;;;;;4.03;3.33;;;;;;;17.15;58.33;95005.63;5068068;28;20035;-76
2023/09/04 06:37:22;;;;;;;3.60;2.90;;;;;;;17.13;58.38;95010.09;5086662;28;20024;-76
2023/09/04 06:39:47;;;;;;;4.53;2.88;;;;;;;17.16;58.36;95012.69;5086018;28;20475;-77
2023/09/04 06:42:13;;;;;;;3.42;2.90;;;;;;;17.15;58.34;95008.41;5086624;28;20044;-76
2023/09/04 06:44:38;;;;;;;5.97;3.25;;;;;;;17.17;58.20;95011.44;5085387;28;20387;-78
2023/09/04 06:47:04;;;;;;;4.00;3.30;;;;;;;17.20;58.85;95016.06;5086375;28;20102;-77
2023/09/04 06:49:29;;;;;;;4.95;3.80;;;;;;;17.17;58.40;95013.47;5085985;28;20093;-78
2023/09/04 06:51:54;;;;;;;4.22;3.47;;;;;;;17.24;58.15;95022.19;5085916;28;20106;-78
2023/09/04 06:54:20;;;;;;;9.15;4.20;;;;;;;17.23;58.32;95017.09;5067513;28;20016;-80
2023/09/04 06:56:45;;;;;;;4.57;3.08;;;;;;;17.22;58.24;95023.91;5067420;28;20103;-80
2023/09/04 06:59:10;;;;;;;4.70;3.63;;;;;;;17.24;58.26;95021.41;5085941;28;20064;-80
2023/09/04 07:01:36;;;;;;;3.90;3.03;;;;;;;17.25;58.29;95017.38;5085568;28;20478;-79
2023/09/04 07:04:01;;;;;;;3.47;3.08;;;;;;;17.33;58.30;95007.44;5085923;28;20035;-82
2023/09/04 07:06:26;;;;;;;5.00;3.08;;;;;;;17.35;57.70;95035.50;5085531;28;20096;-80
2023/09/04 07:08:53;;;;;;;4.95;3.50;;;;;;;17.34;58.05;95017.31;5067602;28;20035;-78
2023/09/04 07:11:18;;;;;;;4.75;3.58;;;;;;;17.35;57.82;95015.28;5050671;28;20055;-79
2023/09/04 07:13:44;;;;;;;4.68;3.63;;;;;;;17.41;57.67;95027.25;5067772;28;20518;-80
2023/09/04 07:16:09;;;;;;;5.10;3.35;;;;;;;17.38;57.64;95017.13;5067441;28;20031;-80
2023/09/04 07:18:34;;;;;;;3.95;3.33;;;;;;;17.44;57.68;95027.09;5067335;28;20103;-79
2023/09/04 07:21:00;;;;;;;4.22;3.58;;;;;;;17.41;57.44;95036.38;5085784;28;20487;-79
2023/09/04 07:23:26;;;;;;;5.93;3.75;;;;;;;17.46;57.67;95032.91;5085375;28;20039;-79
2023/09/04 07:25:54;;;;;;;5.70;3.30;;;;;;;17.47;57.57;95036.47;5086030;28;20050;-80
2023/09/04 07:28:20;;;;;;;4.10;3.70;;;;;;;17.46;57.76;95038.47;5050740;28;20043;-80
2023/09/04 07:30:46;;;;;;;4.47;3.33;;;;;;;17.53;57.41;95038.09;5067520;28;20055;-80
2023/09/04 07:33:11;;;;;;;4.00;3.60;;;;;;;17.57;57.60;95040.69;5066539;28;20422;-77
2023/09/04 07:35:37;;;;;;;7.32;3.58;;;;;;;17.60;56.93;95036.91;5085463;28;20123;-79
2023/09/04 07:38:02;;;;;;;5.10;3.72;;;;;;;17.69;56.88;95041.63;5085599;28;20024;-79
2023/09/04 07:40:28;;;;;;;4.68;3.33;;;;;;;17.67;56.73;95033.00;5066914;28;20140;-79
2023/09/04 07:42:54;;;;;;;3.50;3.20;;;;;;;17.80;56.51;95043.84;5067538;28;20023;-78
2023/09/04 07:45:21;;;;;;;4.13;3.42;;;;;;;17.82;56.39;95035.78;5067396;28;20024;-79
2023/09/04 07:47:48;;;;;;;5.32;3.80;;;;;;;17.90;55.57;95031.38;5085711;28;20107;-82
2023/09/04 07:50:13;;;;;;;5.53;4.03;;;;;;;17.82;55.20;95025.44;5085040;28;20032;-79
2023/09/04 07:52:38;;;;;;;5.40;4.70;;;;;;;17.96;55.19;95027.44;5085856;28;20115;-81
2023/09/04 07:55:04;;;;;;;4.93;4.40;;;;;;;17.94;54.87;95026.34;5086626;28;20032;-80
2023/09/04 07:57:33;;;;;;;4.07;3.50;;;;;;;17.91;54.04;95032.91;5071364;28;20051;-80
2023/09/04 07:59:59;;;;;;;4.22;3.83;;;;;;;17.97;54.44;95034.50;5089337;28;20189;-81
2023/09/04 08:02:25;;;;;;;4.65;3.80;;;;;;;17.99;54.31;95020.13;5070801;28;20035;-79
2023/09/04 08:04:50;;;;;;;4.80;3.72;;;;;;;18.09;53.75;95029.88;5054798;28;20024;-78
2023/09/04 08:07:15;;;;;;;7.60;4.60;;;;;;;18.15;53.57;95035.53;5088928;28;20028;-77
2023/09/04 08:09:41;;;;;;;5.00;4.03;;;;;;;18.20;53.52;95038.38;5089579;28;20028;-78
2023/09/04 08:12:06;;;;;;;5.05;4.13;;;;;;;18.22;53.09;95035.13;5088414;28;20154;-78
2023/09/04 08:14:35;;;;;;;6.05;4.63;;;;;;;18.22;53.11;95035.13;5071017;28;20035;-79
2023/09/04 08:17:02;;;;;;;4.80;4.03;;;;;;;18.28;53.23;95031.16;5070456;28;20050;-79
2023/09/04 08:19:27;;;;;;;9.43;6.30;;;;;;;18.40;52.92;95031.31;5070707;28;20494;-78
2023/09/04 08:21:53;;;;;;;7.95;4.80;;;;;;;18.36;52.72;95028.75;5071272;28;20047;-81
2023/09/04 08:24:18;;;;;;;5.72;4.20;;;;;;;18.41;52.47;95030.03;5088384;28;20050;-79
2023/09/04 08:26:44;;;;;;;4.88;4.20;;;;;;;18.43;52.32;95036.66;5071005;28;20016;-82
2023/09/04 08:29:09;;;;;;;5.70;3.97;;;;;;;18.45;52.11;95031.38;5088003;28;20034;-81
2023/09/04 08:31:35;;;;;;;5.13;4.10;;;;;;;18.42;51.95;95031.59;5070557;28;20035;-82
2023/09/04 08:34:02;;;;;;;6.75;4.60;;;;;;;18.50;52.55;95041.06;5088800;28;20657;-79
2023/09/04 08:36:27;;;;;;;6.63;4.10;;;;;;;18.47;52.22;95028.88;5070431;28;20032;-79
2023/09/04 08:38:53;;;;;;;7.35;5.82;;;;;;;18.51;52.50;95031.44;5088944;28;20095;-81
2023/09/04 08:41:20;;;;;;;10.27;7.20;;;;;;;18.57;52.28;95023.94;5088151;28;20097;-81
2023/09/04 08:43:47;;;;;;;6.25;4.90;;;;;;;18.62;52.75;95026.03;5071187;28;20097;-83
2023/09/04 08:46:15;;;;;;;7.90;4.35;;;;;;;18.72;52.71;95033.00;5070330;28;20039;-83
2023/09/04 08:48:43;;;;;;;4.80;4.32;;;;;;;18.73;52.96;95034.53;5070724;28;20454;-81
2023/09/04 08:51:09;;;;;;;5.47;4.65;;;;;;;18.78;52.30;95030.31;5069860;28;20446;-81
2023/09/04 08:53:36;;;;;;;5.75;4.18;;;;;;;18.83;52.19;95035.94;5088812;28;20115;-81
2023/09/04 08:56:02;;;;;;;6.00;4.20;;;;;;;18.74;52.36;95029.75;5088287;28;20111;-80
2023/09/04 08:58:28;;;;;;;4.95;4.07;;;;;;;18.75;52.10;95031.25;5069288;28;20461;-80
2023/09/04 09:00:54;;;;;;;6.30;4.15;;;;;;;18.67;52.20;95030.13;5087789;28;20561;-80
2023/09/04 09:03:20;;;;;;;4.82;3.90;;;;;;;18.55;52.20;95034.78;5069768;28;20482;-79
2023/09/04 09:05:47;;;;;;;5.10;4.47;;;;;;;18.52;52.10;95044.13;5052561;28;20020;-78
2023/09/04 09:08:15;;;;;;;4.80;3.72;;;;;;;18.48;52.52;95035.22;5052325;28;20031;-82
2023/09/04 09:10:40;;;;;;;5.10;4.57;;;;;;;18.42;52.63;95035.16;5070085;28;20020;-79
2023/09/04 09:13:08;;;;;;;6.95;5.22;;;;;;;18.38;53.39;95040.16;5069698;28;20548;-79
2023/09/04 09:15:33;;;;;;;6.13;5.10;;;;;;;18.38;53.31;95037.38;5052704;28;20518;-81
2023/09/04 09:17:59;;;;;;;8.40;5.95;;;;;;;18.36;53.53;95041.91;5053317;28;20245;-79
2023/09/04 09:20:39;;;;;;;7.55;5.15;;;;;;;18.36;53.83;95042.66;5087527;28;20085;-82
2023/09/04 09:23:05;;;;;;;5.50;4.90;;;;;;;18.34;53.66;95047.16;5070377;28;20020;-81
2023/09/04 09:25:31;;;;;;;8.30;5.72;;;;;;;18.27;53.92;95045.56;5069093;28;20141;-79
2023/09/04 09:28:02;;;;;;;6.82;5.90;;;;;;;18.20;53.75;95038.38;5069722;28;20020;-79
2023/09/04 09:30:36;;;;;;;9.90;6.80;;;;;;;18.18;53.81;95049.25;5069454;28;20020;-82
2023/09/04 09:33:08;;;;;;;7.05;5.55;;;;;;;18.23;53.89;95047.78;5069420;28;20036;-79
2023/09/04 09:35:33;;;;;;;6.82;5.55;;;;;;;18.22;53.82;95046.25;5087984;28;20046;-81
2023/09/04 09:38:00;;;;;;;6.30;4.80;;;;;;;18.29;53.61;95051.41;5069000;28;20437;-80
2023/09/04 09:40:26;;;;;;;7.32;5.38;;;;;;;18.18;53.70;95049.25;5087574;28;20025;-79
2023/09/04 09:42:52;;;;;;;7.63;5.65;;;;;;;18.19;53.92;95050.78;5051977;28;20188;-80
2023/09/04 09:45:18;;;;;;;6.22;5.60;;;;;;;18.19;53.77;95036.84;5068864;28;20028;-80
2023/09/04 09:47:43;;;;;;;5.88;5.10;;;;;;;18.24;53.80;95041.75;5068806;28;20030;-80
2023/09/04 09:50:09;;;;;;;7.43;6.60;;;;;;;18.20;54.02;95035.59;5087086;28;20052;-79
2023/09/04 09:52:34;;;;;;;9.50;6.80;;;;;;;18.23;53.89;95045.00;5086855;28;20024;-79
2023/09/04 09:55:00;;;;;;;10.00;8.27;;;;;;;18.23;54.39;95033.84;5086360;28;20020;-82
2023/09/04 09:57:26;;;;;;;9.55;6.38;;;;;;;18.26;53.93;95035.69;5068530;28;20497;-82
2023/09/04 09:59:52;;;;;;;8.63;7.25;;;;;;;18.26;53.99;95041.25;5086948;28;20552;-84
2023/09/04 10:02:19;;;;;;;8.70;7.00;;;;;;;18.31;53.95;95044.09;5068332;28;20031;-81
2023/09/04 10:04:45;;;;;;;8.88;7.18;;;;;;;18.39;55.29;95044.44;5086004;28;20016;-82
2023/09/04 10:07:15;;;;;;;15.73;9.50;;;;;;;18.36;54.71;95036.34;5068237;28;20051;-82
2023/09/04 10:09:45;;;;;;;12.18;8.85;;;;;;;18.32;55.37;95036.53;5086604;28;20084;-83
2023/09/04 10:12:28;;;;;;;10.40;9.15;;;;;;;18.35;55.92;95034.78;5087058;28;20108;-83
2023/09/04 10:14:56;;;;;;;12.00;7.23;;;;;;;18.39;56.27;95038.88;5068986;28;20071;-82
2023/09/04 10:17:35;;;;;;;8.38;7.03;;;;;;;18.41;56.53;95038.41;5051316;28;20641;-83
2023/09/04 10:20:03;;;;;;;8.32;6.90;;;;;;;18.46;56.82;95032.91;5086987;28;20088;-82
2023/09/04 10:22:34;;;;;;;7.28;5.50;;;;;;;18.49;56.18;95031.19;5086785;28;20024;-83
2023/09/04 10:25:09;;;;;;;8.25;6.20;;;;;;;18.53;56.54;95037.31;5086645;28;20055;-83
2023/09/04 10:27:40;;;;;;;6.30;5.57;;;;;;;18.55;57.48;95029.22;5068750;28;20077;-83
2023/09/04 10:30:06;;;;;;;6.50;5.60;;;;;;;18.66;57.73;95042.53;5068496;28;20024;-83
2023/09/04 10:32:33;;;;;;;11.75;8.65;;;;;;;18.66;58.03;95051.66;5086863;28;20020;-82
2023/09/04 10:35:01;;;;;;;9.55;7.78;;;;;;;18.62;58.32;95045.50;5067959;28;20039;-83
2023/09/04 10:37:29;;;;;;;9.85;7.78;;;;;;;18.64;59.08;95048.59;5068255;28;20097;-84
2023/09/04 10:39:55;;;;;;;12.30;8.07;;;;;;;18.60;59.20;95034.09;5068743;28;20526;-83
2023/09/04 10:42:23;;;;;;;8.25;7.00;;;;;;;18.64;59.80;95040.25;5068258;28;20135;-83
2023/09/04 10:44:53;;;;;;;8.82;6.60;;;;;;;18.74;59.88;95054.78;5069236;28;20032;-81
2023/09/04 10:47:19;;;;;;;8.95;6.70;;;;;;;18.65;59.92;95038.97;5068444;28;20024;-84
2023/09/04 10:49:45;;;;;;;15.13;6.53;;;;;;;18.78;60.46;95061.69;5086825;28;20032;-84
2023/09/04 10:52:11;;;;;;;8.52;5.63;;;;;;;18.87;60.45;95057.22;5086281;28;20396;-83
2023/09/04 10:54:37;;;;;;;7.13;6.00;;;;;;;18.89;60.61;95057.53;5068262;28;20024;-82
2023/09/04 10:57:06;;;;;;;6.95;5.13;;;;;;;18.91;60.82;95066.13;5068311;28;20550;-84
2023/09/04 10:59:54;;;;;;;8.13;5.40;;;;;;;18.99;60.67;95072.84;5067814;28;20028;-83
2023/09/04 11:02:33;;;;;;;7.55;6.75;;;;;;;19.06;60.27;95067.59;5086580;28;20024;-83
2023/09/04 11:05:01;;;;;;;9.18;6.40;;;;;;;19.03;60.48;95068.56;5087539;28;20031;-84
2023/09/04 11:07:29;;;;;;;8.82;6.63;;;;;;;19.05;59.77;95062.53;5087210;28;20054;-82
2023/09/04 11:10:06;;;;;;;7.65;6.38;;;;;;;19.10;59.96;95067.41;5086249;28;20047;-86
2023/09/04 11:12:36;;;;;;;9.05;6.55;;;;;;;19.10;60.25;95070.19;5087174;28;20502;-84
2023/09/04 11:15:09;;;;;;;7.88;6.30;;;;;;;19.16;60.75;95068.22;5086899;28;20483;-83
2023/09/04 11:17:35;;;;;;;8.95;6.25;;;;;;;19.09;60.50;95055.47;5067757;28;20047;-84
2023/09/04 11:20:00;;;;;;;9.05;6.20;;;;;;;19.17;60.93;95071.78;5068590;28;20034;-85
2023/09/04 11:22:26;;;;;;;6.97;6.10;;;;;;;19.11;61.45;95063.34;5067971;28;20372;-84
2023/09/04 11:24:55;;;;;;;7.03;5.38;;;;;;;19.26;60.88;95068.81;5085957;28;20041;-82
2023/09/04 11:27:21;;;;;;;7.00;5.30;;;;;;;19.19;60.93;95072.03;5086019;28;20036;-83
2023/09/04 11:29:48;;;;;;;8.27;5.88;;;;;;;19.21;61.26;95078.66;5067387;28;20106;-82
2023/09/04 11:32:13;;;;;;;7.15;4.85;;;;;;;19.24;61.05;95082.47;5086662;28;20081;-82